sensor_id;sensor_type;location;lat;lon;timestamp;temperature;humidity
55121;DHT22;41019;48.512;9.036;2022-08-01T00:00:37;19.40;71.00
55121;DHT22;41019;48.512;9.036;2022-08-01T00:03:04;19.40;70.90
55121;DHT22;41019;48.512;9.036;2022-08-01T00:05:30;19.40;69.70
55121;DHT22;41019;48.512;9.036;2022-08-01T00:07:56;19.40;69.50
55121;DHT22;41019;48.512;9.036;2022-08-01T00:10:22;19.40;68.80
55121;DHT22;41019;48.512;9.036;2022-08-01T00:12:48;19.30;68.60
55121;DHT22;41019;48.512;9.036;2022-08-01T00:15:16;19.30;68.70
55121;DHT22;41019;48.512;9.036;2022-08-01T00:17:43;19.30;69.40
55121;DHT22;41019;48.512;9.036;2022-08-01T00:20:12;19.20;69.20
55121;DHT22;41019;48.512;9.036;2022-08-01T00:22:38;19.20;69.40
55121;DHT22;41019;48.512;9.036;2022-08-01T00:25:06;19.20;70.00
55121;DHT22;41019;48.512;9.036;2022-08-01T00:27:32;19.10;70.20
55121;DHT22;41019;48.512;9.036;2022-08-01T00:29:58;19.10;70.80
55121;DHT22;41019;48.512;9.036;2022-08-01T00:32:25;19.10;71.90
55121;DHT22;41019;48.512;9.036;2022-08-01T00:34:51;19.00;71.70
55121;DHT22;41019;48.512;9.036;2022-08-01T00:37:17;19.00;71.50
55121;DHT22;41019;48.512;9.036;2022-08-01T00:39:43;19.00;72.20
55121;DHT22;41019;48.512;9.036;2022-08-01T00:42:11;18.90;72.20
55121;DHT22;41019;48.512;9.036;2022-08-01T00:44:38;18.90;73.10
55121;DHT22;41019;48.512;9.036;2022-08-01T00:47:06;18.80;73.20
55121;DHT22;41019;48.512;9.036;2022-08-01T00:49:32;18.80;73.10
55121;DHT22;41019;48.512;9.036;2022-08-01T00:51:58;18.80;73.00
55121;DHT22;41019;48.512;9.036;2022-08-01T00:54:26;18.80;73.40
55121;DHT22;41019;48.512;9.036;2022-08-01T00:56:53;18.70;73.80
55121;DHT22;41019;48.512;9.036;2022-08-01T00:59:21;18.70;74.40
55121;DHT22;41019;48.512;9.036;2022-08-01T01:01:48;18.60;74.80
55121;DHT22;41019;48.512;9.036;2022-08-01T01:04:14;18.60;74.80
55121;DHT22;41019;48.512;9.036;2022-08-01T01:06:48;18.60;73.80
55121;DHT22;41019;48.512;9.036;2022-08-01T01:12:26;18.60;72.80
55121;DHT22;41019;48.512;9.036;2022-08-01T01:15:07;18.50;72.60
55121;DHT22;41019;48.512;9.036;2022-08-01T01:17:42;18.50;72.10
55121;DHT22;41019;48.512;9.036;2022-08-01T01:20:14;18.50;72.50
55121;DHT22;41019;48.512;9.036;2022-08-01T01:31:27;18.40;72.80
55121;DHT22;41019;48.512;9.036;2022-08-01T01:33:55;18.40;72.50
55121;DHT22;41019;48.512;9.036;2022-08-01T01:36:26;18.30;71.90
55121;DHT22;41019;48.512;9.036;2022-08-01T01:38:55;18.30;72.10
55121;DHT22;41019;48.512;9.036;2022-08-01T01:41:23;18.30;72.30
55121;DHT22;41019;48.512;9.036;2022-08-01T01:43:51;18.30;73.10
55121;DHT22;41019;48.512;9.036;2022-08-01T01:46:23;18.30;74.10
55121;DHT22;41019;48.512;9.036;2022-08-01T01:48:51;18.20;74.80
55121;DHT22;41019;48.512;9.036;2022-08-01T01:51:20;18.20;75.70
55121;DHT22;41019;48.512;9.036;2022-08-01T01:53:48;18.20;76.20
55121;DHT22;41019;48.512;9.036;2022-08-01T01:56:16;18.10;76.50
55121;DHT22;41019;48.512;9.036;2022-08-01T01:58:50;18.10;76.50
55121;DHT22;41019;48.512;9.036;2022-08-01T02:01:19;18.10;76.60
55121;DHT22;41019;48.512;9.036;2022-08-01T02:03:49;18.00;76.70
55121;DHT22;41019;48.512;9.036;2022-08-01T02:06:17;17.90;76.90
55121;DHT22;41019;48.512;9.036;2022-08-01T02:08:45;17.90;77.00
55121;DHT22;41019;48.512;9.036;2022-08-01T02:11:13;17.80;77.40
55121;DHT22;41019;48.512;9.036;2022-08-01T02:13:58;17.80;77.70
55121;DHT22;41019;48.512;9.036;2022-08-01T02:16:29;17.80;78.10
55121;DHT22;41019;48.512;9.036;2022-08-01T02:18:57;17.70;78.30
55121;DHT22;41019;48.512;9.036;2022-08-01T02:21:43;17.70;79.10
55121;DHT22;41019;48.512;9.036;2022-08-01T02:24:22;17.70;78.90
55121;DHT22;41019;48.512;9.036;2022-08-01T02:26:53;17.70;79.20
55121;DHT22;41019;48.512;9.036;2022-08-01T02:29:27;17.60;79.50
55121;DHT22;41019;48.512;9.036;2022-08-01T02:31:57;17.60;79.40
55121;DHT22;41019;48.512;9.036;2022-08-01T02:34:28;17.50;79.20
55121;DHT22;41019;48.512;9.036;2022-08-01T02:37:00;17.50;78.80
55121;DHT22;41019;48.512;9.036;2022-08-01T02:39:30;17.40;79.00
55121;DHT22;41019;48.512;9.036;2022-08-01T02:42:02;17.40;79.10
55121;DHT22;41019;48.512;9.036;2022-08-01T02:44:35;17.40;80.00
55121;DHT22;41019;48.512;9.036;2022-08-01T02:47:03;17.40;80.40
55121;DHT22;41019;48.512;9.036;2022-08-01T02:49:35;17.40;80.10
55121;DHT22;41019;48.512;9.036;2022-08-01T02:52:07;17.40;80.10
55121;DHT22;41019;48.512;9.036;2022-08-01T02:54:36;17.40;79.70
55121;DHT22;41019;48.512;9.036;2022-08-01T02:57:04;17.30;80.00
55121;DHT22;41019;48.512;9.036;2022-08-01T02:59:34;17.30;79.80
55121;DHT22;41019;48.512;9.036;2022-08-01T03:02:04;17.30;80.50
55121;DHT22;41019;48.512;9.036;2022-08-01T03:04:34;17.30;80.60
55121;DHT22;41019;48.512;9.036;2022-08-01T03:07:03;17.30;80.00
55121;DHT22;41019;48.512;9.036;2022-08-01T03:09:34;17.20;81.10
55121;DHT22;41019;48.512;9.036;2022-08-01T03:12:04;17.20;80.20
55121;DHT22;41019;48.512;9.036;2022-08-01T03:14:35;17.20;80.50
55121;DHT22;41019;48.512;9.036;2022-08-01T03:17:04;17.20;80.30
55121;DHT22;41019;48.512;9.036;2022-08-01T03:19:31;17.20;79.80
55121;DHT22;41019;48.512;9.036;2022-08-01T03:21:59;17.10;80.10
55121;DHT22;41019;48.512;9.036;2022-08-01T03:24:29;17.10;80.50
55121;DHT22;41019;48.512;9.036;2022-08-01T03:26:58;17.10;80.60
55121;DHT22;41019;48.512;9.036;2022-08-01T03:29:26;17.10;80.70
55121;DHT22;41019;48.512;9.036;2022-08-01T03:31:53;17.00;80.90
55121;DHT22;41019;48.512;9.036;2022-08-01T03:34:19;17.00;81.20
55121;DHT22;41019;48.512;9.036;2022-08-01T03:37:01;17.00;81.20
55121;DHT22;41019;48.512;9.036;2022-08-01T03:39:42;17.00;81.10
55121;DHT22;41019;48.512;9.036;2022-08-01T03:42:14;16.90;81.40
55121;DHT22;41019;48.512;9.036;2022-08-01T03:44:49;16.90;81.10
55121;DHT22;41019;48.512;9.036;2022-08-01T03:47:24;16.90;80.50
55121;DHT22;41019;48.512;9.036;2022-08-01T03:49:52;16.90;80.00
55121;DHT22;41019;48.512;9.036;2022-08-01T03:52:21;16.80;79.80
55121;DHT22;41019;48.512;9.036;2022-08-01T03:54:50;16.80;80.90
55121;DHT22;41019;48.512;9.036;2022-08-01T03:57:18;16.80;80.90
55121;DHT22;41019;48.512;9.036;2022-08-01T03:59:45;16.80;81.50
55121;DHT22;41019;48.512;9.036;2022-08-01T04:02:12;16.80;81.80
55121;DHT22;41019;48.512;9.036;2022-08-01T04:04:41;16.80;81.90
55121;DHT22;41019;48.512;9.036;2022-08-01T04:07:22;16.80;81.90
55121;DHT22;41019;48.512;9.036;2022-08-01T04:09:48;16.80;82.20
55121;DHT22;41019;48.512;9.036;2022-08-01T04:12:14;16.80;82.60
55121;DHT22;41019;48.512;9.036;2022-08-01T04:14:40;16.70;82.00
55121;DHT22;41019;48.512;9.036;2022-08-01T04:17:06;16.70;82.40
55121;DHT22;41019;48.512;9.036;2022-08-01T04:19:31;16.70;82.50
55121;DHT22;41019;48.512;9.036;2022-08-01T04:21:58;16.70;82.40
55121;DHT22;41019;48.512;9.036;2022-08-01T04:24:26;16.60;82.60
55121;DHT22;41019;48.512;9.036;2022-08-01T04:26:54;16.60;83.10
55121;DHT22;41019;48.512;9.036;2022-08-01T04:29:23;16.60;82.30
55121;DHT22;41019;48.512;9.036;2022-08-01T04:31:52;16.60;82.80
55121;DHT22;41019;48.512;9.036;2022-08-01T04:34:22;16.60;82.90
55121;DHT22;41019;48.512;9.036;2022-08-01T04:36:51;16.60;82.50
55121;DHT22;41019;48.512;9.036;2022-08-01T04:39:19;16.60;81.40
55121;DHT22;41019;48.512;9.036;2022-08-01T04:41:47;16.60;81.60
55121;DHT22;41019;48.512;9.036;2022-08-01T04:44:14;16.60;81.00
55121;DHT22;41019;48.512;9.036;2022-08-01T04:46:41;16.60;80.60
55121;DHT22;41019;48.512;9.036;2022-08-01T04:49:07;16.70;80.40
55121;DHT22;41019;48.512;9.036;2022-08-01T04:51:34;16.60;80.70
55121;DHT22;41019;48.512;9.036;2022-08-01T04:54:01;16.70;81.40
55121;DHT22;41019;48.512;9.036;2022-08-01T04:56:27;16.70;81.90
55121;DHT22;41019;48.512;9.036;2022-08-01T04:58:53;16.70;82.00
55121;DHT22;41019;48.512;9.036;2022-08-01T05:01:37;16.70;81.60
55121;DHT22;41019;48.512;9.036;2022-08-01T05:04:03;16.70;81.80
55121;DHT22;41019;48.512;9.036;2022-08-01T05:06:29;16.70;81.70
55121;DHT22;41019;48.512;9.036;2022-08-01T05:08:55;16.70;81.50
55121;DHT22;41019;48.512;9.036;2022-08-01T05:11:22;16.80;82.30
55121;DHT22;41019;48.512;9.036;2022-08-01T05:13:48;16.80;82.20
55121;DHT22;41019;48.512;9.036;2022-08-01T05:16:14;16.90;82.10
55121;DHT22;41019;48.512;9.036;2022-08-01T05:18:40;17.00;82.40
55121;DHT22;41019;48.512;9.036;2022-08-01T05:21:06;17.00;82.10
55121;DHT22;41019;48.512;9.036;2022-08-01T05:23:33;17.10;81.70
55121;DHT22;41019;48.512;9.036;2022-08-01T05:25:59;17.20;81.40
55121;DHT22;41019;48.512;9.036;2022-08-01T05:28:24;17.30;80.30
55121;DHT22;41019;48.512;9.036;2022-08-01T05:30:50;17.40;79.90
55121;DHT22;41019;48.512;9.036;2022-08-01T05:33:20;17.40;80.30
55121;DHT22;41019;48.512;9.036;2022-08-01T05:35:46;17.40;79.90
55121;DHT22;41019;48.512;9.036;2022-08-01T05:38:12;17.50;80.30
55121;DHT22;41019;48.512;9.036;2022-08-01T05:40:38;17.50;80.60
55121;DHT22;41019;48.512;9.036;2022-08-01T05:43:04;17.60;80.10
55121;DHT22;41019;48.512;9.036;2022-08-01T05:45:30;17.60;79.10
55121;DHT22;41019;48.512;9.036;2022-08-01T05:47:55;17.60;79.10
55121;DHT22;41019;48.512;9.036;2022-08-01T05:50:21;17.70;80.40
55121;DHT22;41019;48.512;9.036;2022-08-01T05:52:47;17.80;80.70
55121;DHT22;41019;48.512;9.036;2022-08-01T05:55:13;17.90;79.00
55121;DHT22;41019;48.512;9.036;2022-08-01T05:57:39;18.00;77.90
55121;DHT22;41019;48.512;9.036;2022-08-01T06:00:05;18.10;76.80
55121;DHT22;41019;48.512;9.036;2022-08-01T06:02:40;18.10;77.00
55121;DHT22;41019;48.512;9.036;2022-08-01T06:05:07;18.20;76.80
55121;DHT22;41019;48.512;9.036;2022-08-01T06:07:33;18.20;77.10
55121;DHT22;41019;48.512;9.036;2022-08-01T06:09:59;18.30;77.50
55121;DHT22;41019;48.512;9.036;2022-08-01T06:12:25;18.40;76.10
55121;DHT22;41019;48.512;9.036;2022-08-01T06:14:51;18.40;75.60
55121;DHT22;41019;48.512;9.036;2022-08-01T06:17:17;18.50;75.10
55121;DHT22;41019;48.512;9.036;2022-08-01T06:19:43;18.60;74.30
55121;DHT22;41019;48.512;9.036;2022-08-01T06:22:08;18.70;74.80
55121;DHT22;41019;48.512;9.036;2022-08-01T06:24:34;18.80;74.30
55121;DHT22;41019;48.512;9.036;2022-08-01T06:27:00;18.90;73.60
55121;DHT22;41019;48.512;9.036;2022-08-01T06:29:26;19.10;73.20
55121;DHT22;41019;48.512;9.036;2022-08-01T06:31:51;19.20;73.00
55121;DHT22;41019;48.512;9.036;2022-08-01T06:34:17;19.30;72.90
55121;DHT22;41019;48.512;9.036;2022-08-01T06:36:43;19.40;73.00
55121;DHT22;41019;48.512;9.036;2022-08-01T06:39:09;19.50;72.20
55121;DHT22;41019;48.512;9.036;2022-08-01T06:41:35;19.60;71.70
55121;DHT22;41019;48.512;9.036;2022-08-01T06:44:01;19.60;71.70
55121;DHT22;41019;48.512;9.036;2022-08-01T06:46:29;19.70;72.40
55121;DHT22;41019;48.512;9.036;2022-08-01T06:48:55;19.70;72.00
55121;DHT22;41019;48.512;9.036;2022-08-01T06:51:21;19.80;72.30
55121;DHT22;41019;48.512;9.036;2022-08-01T06:53:47;19.80;72.50
55121;DHT22;41019;48.512;9.036;2022-08-01T06:56:13;19.80;72.50
55121;DHT22;41019;48.512;9.036;2022-08-01T06:58:38;19.80;72.60
55121;DHT22;41019;48.512;9.036;2022-08-01T07:01:05;19.90;72.80
55121;DHT22;41019;48.512;9.036;2022-08-01T07:03:33;20.00;72.70
55121;DHT22;41019;48.512;9.036;2022-08-01T07:05:59;20.10;72.70
55121;DHT22;41019;48.512;9.036;2022-08-01T07:08:25;20.30;72.30
55121;DHT22;41019;48.512;9.036;2022-08-01T07:10:51;20.50;71.30
55121;DHT22;41019;48.512;9.036;2022-08-01T07:13:17;20.70;71.10
55121;DHT22;41019;48.512;9.036;2022-08-01T07:15:47;21.00;70.70
55121;DHT22;41019;48.512;9.036;2022-08-01T07:18:13;21.30;69.10
55121;DHT22;41019;48.512;9.036;2022-08-01T07:20:39;21.60;67.80
55121;DHT22;41019;48.512;9.036;2022-08-01T07:23:05;21.80;66.20
55121;DHT22;41019;48.512;9.036;2022-08-01T07:25:31;22.10;65.60
55121;DHT22;41019;48.512;9.036;2022-08-01T07:27:57;22.40;65.10
55121;DHT22;41019;48.512;9.036;2022-08-01T07:30:23;22.70;64.10
55121;DHT22;41019;48.512;9.036;2022-08-01T07:32:49;23.00;62.70
55121;DHT22;41019;48.512;9.036;2022-08-01T07:35:14;23.40;61.40
55121;DHT22;41019;48.512;9.036;2022-08-01T07:37:40;23.70;60.60
55121;DHT22;41019;48.512;9.036;2022-08-01T07:40:07;24.00;59.80
55121;DHT22;41019;48.512;9.036;2022-08-01T07:42:33;24.30;58.90
55121;DHT22;41019;48.512;9.036;2022-08-01T07:44:59;24.60;58.10
55121;DHT22;41019;48.512;9.036;2022-08-01T07:47:25;24.80;57.20
55121;DHT22;41019;48.512;9.036;2022-08-01T07:49:52;25.10;56.50
55121;DHT22;41019;48.512;9.036;2022-08-01T07:52:18;25.40;55.50
55121;DHT22;41019;48.512;9.036;2022-08-01T07:54:44;25.70;55.00
55121;DHT22;41019;48.512;9.036;2022-08-01T07:57:10;26.00;54.90
55121;DHT22;41019;48.512;9.036;2022-08-01T07:59:35;26.20;54.80
55121;DHT22;41019;48.512;9.036;2022-08-01T08:02:01;26.30;52.20
55121;DHT22;41019;48.512;9.036;2022-08-01T08:04:27;26.60;52.70
55121;DHT22;41019;48.512;9.036;2022-08-01T08:06:53;26.70;50.70
55121;DHT22;41019;48.512;9.036;2022-08-01T08:09:20;26.90;50.20
55121;DHT22;41019;48.512;9.036;2022-08-01T08:11:46;27.10;49.90
55121;DHT22;41019;48.512;9.036;2022-08-01T08:14:12;27.30;49.80
55121;DHT22;41019;48.512;9.036;2022-08-01T08:16:38;27.40;50.40
55121;DHT22;41019;48.512;9.036;2022-08-01T08:19:04;27.60;49.20
55121;DHT22;41019;48.512;9.036;2022-08-01T08:21:30;27.70;49.10
55121;DHT22;41019;48.512;9.036;2022-08-01T08:23:56;27.90;49.00
55121;DHT22;41019;48.512;9.036;2022-08-01T08:26:41;28.00;48.50
55121;DHT22;41019;48.512;9.036;2022-08-01T08:29:07;28.20;48.00
55121;DHT22;41019;48.512;9.036;2022-08-01T08:31:33;28.40;47.50
55121;DHT22;41019;48.512;9.036;2022-08-01T08:33:59;28.60;47.60
55121;DHT22;41019;48.512;9.036;2022-08-01T08:36:25;28.90;46.60
55121;DHT22;41019;48.512;9.036;2022-08-01T08:38:51;29.10;45.70
55121;DHT22;41019;48.512;9.036;2022-08-01T08:41:17;29.20;46.30
55121;DHT22;41019;48.512;9.036;2022-08-01T08:43:43;29.30;45.10
55121;DHT22;41019;48.512;9.036;2022-08-01T08:46:12;29.10;45.10
55121;DHT22;41019;48.512;9.036;2022-08-01T08:48:40;29.00;45.40
55121;DHT22;41019;48.512;9.036;2022-08-01T08:51:08;28.80;45.30
55121;DHT22;41019;48.512;9.036;2022-08-01T08:53:40;28.70;45.10
55121;DHT22;41019;48.512;9.036;2022-08-01T08:56:12;28.60;45.90
55121;DHT22;41019;48.512;9.036;2022-08-01T08:58:41;28.60;46.40
55121;DHT22;41019;48.512;9.036;2022-08-01T09:01:09;28.60;46.50
55121;DHT22;41019;48.512;9.036;2022-08-01T09:03:36;28.60;45.70
55121;DHT22;41019;48.512;9.036;2022-08-01T09:06:03;28.70;46.00
55121;DHT22;41019;48.512;9.036;2022-08-01T09:08:29;28.60;46.10
55121;DHT22;41019;48.512;9.036;2022-08-01T09:10:54;28.60;45.90
55121;DHT22;41019;48.512;9.036;2022-08-01T09:13:21;28.60;45.50
55121;DHT22;41019;48.512;9.036;2022-08-01T09:15:55;28.70;46.10
55121;DHT22;41019;48.512;9.036;2022-08-01T09:18:37;28.90;46.20
55121;DHT22;41019;48.512;9.036;2022-08-01T09:21:21;29.30;45.20
55121;DHT22;41019;48.512;9.036;2022-08-01T09:23:51;29.80;43.80
55121;DHT22;41019;48.512;9.036;2022-08-01T09:26:32;29.80;44.40
55121;DHT22;41019;48.512;9.036;2022-08-01T09:29:02;30.00;44.00
55121;DHT22;41019;48.512;9.036;2022-08-01T09:31:38;30.40;43.40
55121;DHT22;41019;48.512;9.036;2022-08-01T09:34:04;30.60;42.60
55121;DHT22;41019;48.512;9.036;2022-08-01T09:36:46;30.80;42.20
55121;DHT22;41019;48.512;9.036;2022-08-01T09:39:15;31.10;41.50
55121;DHT22;41019;48.512;9.036;2022-08-01T09:41:41;31.40;41.30
55121;DHT22;41019;48.512;9.036;2022-08-01T09:44:07;31.40;41.30
55121;DHT22;41019;48.512;9.036;2022-08-01T09:46:33;31.50;40.50
55121;DHT22;41019;48.512;9.036;2022-08-01T09:49:02;31.50;40.70
55121;DHT22;41019;48.512;9.036;2022-08-01T09:53:55;31.90;41.10
55121;DHT22;41019;48.512;9.036;2022-08-01T09:56:22;32.10;39.80
55121;DHT22;41019;48.512;9.036;2022-08-01T09:58:59;32.20;39.70
55121;DHT22;41019;48.512;9.036;2022-08-01T10:01:27;32.10;38.80
55121;DHT22;41019;48.512;9.036;2022-08-01T10:06:42;32.00;39.10
55121;DHT22;41019;48.512;9.036;2022-08-01T10:09:10;31.90;39.30
55121;DHT22;41019;48.512;9.036;2022-08-01T10:11:39;31.80;39.00
55121;DHT22;41019;48.512;9.036;2022-08-01T10:14:07;31.50;38.70
55121;DHT22;41019;48.512;9.036;2022-08-01T10:16:35;31.30;39.60
55121;DHT22;41019;48.512;9.036;2022-08-01T10:19:06;31.40;40.00
55121;DHT22;41019;48.512;9.036;2022-08-01T10:21:33;31.70;40.50
55121;DHT22;41019;48.512;9.036;2022-08-01T10:24:02;31.90;40.60
55121;DHT22;41019;48.512;9.036;2022-08-01T10:26:32;31.90;38.70
55121;DHT22;41019;48.512;9.036;2022-08-01T10:28:59;31.80;38.70
55121;DHT22;41019;48.512;9.036;2022-08-01T10:31:26;31.60;38.30
55121;DHT22;41019;48.512;9.036;2022-08-01T10:33:53;31.50;38.50
55121;DHT22;41019;48.512;9.036;2022-08-01T10:36:21;31.10;38.80
55121;DHT22;41019;48.512;9.036;2022-08-01T10:38:47;30.80;39.60
55121;DHT22;41019;48.512;9.036;2022-08-01T10:41:13;30.70;39.80
55121;DHT22;41019;48.512;9.036;2022-08-01T10:43:43;30.60;42.10
55121;DHT22;41019;48.512;9.036;2022-08-01T10:46:10;30.90;41.20
55121;DHT22;41019;48.512;9.036;2022-08-01T10:48:51;31.20;40.90
55121;DHT22;41019;48.512;9.036;2022-08-01T10:51:21;31.30;40.20
55121;DHT22;41019;48.512;9.036;2022-08-01T10:53:51;31.30;39.30
55121;DHT22;41019;48.512;9.036;2022-08-01T10:56:17;31.10;39.10
55121;DHT22;41019;48.512;9.036;2022-08-01T10:58:46;31.00;40.00
55121;DHT22;41019;48.512;9.036;2022-08-01T11:01:21;30.90;39.50
55121;DHT22;41019;48.512;9.036;2022-08-01T11:04:10;30.70;40.70
55121;DHT22;41019;48.512;9.036;2022-08-01T11:14:24;30.30;40.90
55121;DHT22;41019;48.512;9.036;2022-08-01T11:16:50;30.30;40.80
55121;DHT22;41019;48.512;9.036;2022-08-01T11:19:16;30.40;41.30
55121;DHT22;41019;48.512;9.036;2022-08-01T11:27:21;31.10;39.90
55121;DHT22;41019;48.512;9.036;2022-08-01T11:32:53;32.00;38.70
55121;DHT22;41019;48.512;9.036;2022-08-01T11:35:21;32.10;37.70
55121;DHT22;41019;48.512;9.036;2022-08-01T11:37:50;32.10;37.90
55121;DHT22;41019;48.512;9.036;2022-08-01T11:40:24;32.10;38.80
55121;DHT22;41019;48.512;9.036;2022-08-01T11:45:53;31.40;38.90
55121;DHT22;41019;48.512;9.036;2022-08-01T11:48:28;30.90;39.10
55121;DHT22;41019;48.512;9.036;2022-08-01T11:50:55;30.60;40.30
55121;DHT22;41019;48.512;9.036;2022-08-01T11:53:22;30.40;40.30
55121;DHT22;41019;48.512;9.036;2022-08-01T11:55:51;30.20;40.40
55121;DHT22;41019;48.512;9.036;2022-08-01T11:58:22;29.90;40.50
55121;DHT22;41019;48.512;9.036;2022-08-01T12:00:56;29.70;41.30
55121;DHT22;41019;48.512;9.036;2022-08-01T12:03:25;29.60;42.10
55121;DHT22;41019;48.512;9.036;2022-08-01T12:05:53;29.50;42.20
55121;DHT22;41019;48.512;9.036;2022-08-01T12:08:27;29.40;41.80
55121;DHT22;41019;48.512;9.036;2022-08-01T12:10:53;29.50;41.70
55121;DHT22;41019;48.512;9.036;2022-08-01T12:13:20;29.90;41.70
55121;DHT22;41019;48.512;9.036;2022-08-01T12:15:47;30.40;42.00
55121;DHT22;41019;48.512;9.036;2022-08-01T12:18:13;31.00;40.50
55121;DHT22;41019;48.512;9.036;2022-08-01T12:20:42;31.60;40.70
55121;DHT22;41019;48.512;9.036;2022-08-01T12:23:14;32.10;38.90
55121;DHT22;41019;48.512;9.036;2022-08-01T12:25:41;32.60;38.60
55121;DHT22;41019;48.512;9.036;2022-08-01T12:28:11;32.90;38.30
55121;DHT22;41019;48.512;9.036;2022-08-01T12:30:39;32.80;37.80
55121;DHT22;41019;48.512;9.036;2022-08-01T12:33:08;32.40;38.00
55121;DHT22;41019;48.512;9.036;2022-08-01T12:35:35;32.40;38.20
55121;DHT22;41019;48.512;9.036;2022-08-01T12:38:05;32.70;38.20
55121;DHT22;41019;48.512;9.036;2022-08-01T12:40:34;33.10;37.80
55121;DHT22;41019;48.512;9.036;2022-08-01T12:43:06;33.40;37.20
55121;DHT22;41019;48.512;9.036;2022-08-01T12:45:40;33.60;36.90
55121;DHT22;41019;48.512;9.036;2022-08-01T12:48:15;33.80;35.70
55121;DHT22;41019;48.512;9.036;2022-08-01T12:50:44;34.10;36.30
55121;DHT22;41019;48.512;9.036;2022-08-01T12:53:11;34.20;36.20
55121;DHT22;41019;48.512;9.036;2022-08-01T12:55:46;34.20;35.90
55121;DHT22;41019;48.512;9.036;2022-08-01T12:58:14;34.20;36.00
55121;DHT22;41019;48.512;9.036;2022-08-01T13:00:42;34.70;35.90
55121;DHT22;41019;48.512;9.036;2022-08-01T13:03:14;34.80;36.10
55121;DHT22;41019;48.512;9.036;2022-08-01T13:05:55;34.90;35.40
55121;DHT22;41019;48.512;9.036;2022-08-01T13:08:33;34.90;36.00
55121;DHT22;41019;48.512;9.036;2022-08-01T13:11:08;35.00;35.90
55121;DHT22;41019;48.512;9.036;2022-08-01T13:16:07;34.80;35.70
55121;DHT22;41019;48.512;9.036;2022-08-01T13:18:34;34.70;36.60
55121;DHT22;41019;48.512;9.036;2022-08-01T13:23:39;34.80;35.30
55121;DHT22;41019;48.512;9.036;2022-08-01T13:26:05;34.80;34.60
55121;DHT22;41019;48.512;9.036;2022-08-01T13:28:32;34.70;34.40
55121;DHT22;41019;48.512;9.036;2022-08-01T13:31:00;34.80;34.70
55121;DHT22;41019;48.512;9.036;2022-08-01T13:33:39;34.70;34.30
55121;DHT22;41019;48.512;9.036;2022-08-01T13:36:07;34.70;34.90
55121;DHT22;41019;48.512;9.036;2022-08-01T13:38:33;34.80;34.80
55121;DHT22;41019;48.512;9.036;2022-08-01T13:41:17;35.00;34.00
55121;DHT22;41019;48.512;9.036;2022-08-01T13:43:43;35.10;33.70
55121;DHT22;41019;48.512;9.036;2022-08-01T13:46:09;35.30;33.90
55121;DHT22;41019;48.512;9.036;2022-08-01T13:48:35;35.10;33.70
55121;DHT22;41019;48.512;9.036;2022-08-01T13:51:01;34.50;34.00
55121;DHT22;41019;48.512;9.036;2022-08-01T13:53:28;34.50;34.50
55121;DHT22;41019;48.512;9.036;2022-08-01T13:55:54;34.40;34.40
55121;DHT22;41019;48.512;9.036;2022-08-01T13:58:20;34.50;34.70
55121;DHT22;41019;48.512;9.036;2022-08-01T14:00:45;34.20;35.10
55121;DHT22;41019;48.512;9.036;2022-08-01T14:03:12;33.90;35.50
55121;DHT22;41019;48.512;9.036;2022-08-01T14:05:38;33.70;35.40
55121;DHT22;41019;48.512;9.036;2022-08-01T14:08:05;33.40;35.80
55121;DHT22;41019;48.512;9.036;2022-08-01T14:10:31;33.00;36.50
55121;DHT22;41019;48.512;9.036;2022-08-01T14:12:57;32.80;36.30
55121;DHT22;41019;48.512;9.036;2022-08-01T14:15:24;32.50;36.40
55121;DHT22;41019;48.512;9.036;2022-08-01T14:17:50;32.30;37.30
55121;DHT22;41019;48.512;9.036;2022-08-01T14:20:16;31.90;38.20
55121;DHT22;41019;48.512;9.036;2022-08-01T14:22:46;31.50;38.70
55121;DHT22;41019;48.512;9.036;2022-08-01T14:25:12;31.30;39.20
55121;DHT22;41019;48.512;9.036;2022-08-01T14:27:38;31.30;39.20
55121;DHT22;41019;48.512;9.036;2022-08-01T14:30:06;31.30;39.50
55121;DHT22;41019;48.512;9.036;2022-08-01T14:32:32;31.10;39.60
55121;DHT22;41019;48.512;9.036;2022-08-01T14:35:02;31.00;40.00
55121;DHT22;41019;48.512;9.036;2022-08-01T14:37:29;30.90;40.20
55121;DHT22;41019;48.512;9.036;2022-08-01T14:39:59;31.10;40.50
55121;DHT22;41019;48.512;9.036;2022-08-01T14:42:29;31.20;40.20
55121;DHT22;41019;48.512;9.036;2022-08-01T14:44:55;31.30;39.90
55121;DHT22;41019;48.512;9.036;2022-08-01T14:47:21;31.20;39.60
55121;DHT22;41019;48.512;9.036;2022-08-01T14:49:47;31.30;39.60
55121;DHT22;41019;48.512;9.036;2022-08-01T14:52:13;31.30;38.90
55121;DHT22;41019;48.512;9.036;2022-08-01T14:54:38;31.30;39.30
55121;DHT22;41019;48.512;9.036;2022-08-01T14:57:04;31.40;38.80
55121;DHT22;41019;48.512;9.036;2022-08-01T14:59:30;31.50;39.00
55121;DHT22;41019;48.512;9.036;2022-08-01T15:01:56;31.50;38.60
55121;DHT22;41019;48.512;9.036;2022-08-01T15:04:22;31.40;38.40
55121;DHT22;41019;48.512;9.036;2022-08-01T15:06:48;31.40;38.40
55121;DHT22;41019;48.512;9.036;2022-08-01T15:09:14;31.30;38.70
55121;DHT22;41019;48.512;9.036;2022-08-01T15:11:40;31.20;39.10
55121;DHT22;41019;48.512;9.036;2022-08-01T15:14:05;31.30;39.20
55121;DHT22;41019;48.512;9.036;2022-08-01T15:16:50;31.40;39.20
55121;DHT22;41019;48.512;9.036;2022-08-01T15:19:16;31.40;40.30
55121;DHT22;41019;48.512;9.036;2022-08-01T15:21:42;31.10;40.00
55121;DHT22;41019;48.512;9.036;2022-08-01T15:24:08;31.10;40.60
55121;DHT22;41019;48.512;9.036;2022-08-01T15:26:35;31.20;40.90
55121;DHT22;41019;48.512;9.036;2022-08-01T15:29:01;31.20;41.80
55121;DHT22;41019;48.512;9.036;2022-08-01T15:31:26;31.10;41.60
55121;DHT22;41019;48.512;9.036;2022-08-01T15:33:52;31.10;41.50
55121;DHT22;41019;48.512;9.036;2022-08-01T15:36:18;31.10;41.10
55121;DHT22;41019;48.512;9.036;2022-08-01T15:38:44;31.10;41.40
55121;DHT22;41019;48.512;9.036;2022-08-01T15:41:10;31.10;42.00
55121;DHT22;41019;48.512;9.036;2022-08-01T15:43:35;31.10;41.70
55121;DHT22;41019;48.512;9.036;2022-08-01T15:46:04;31.10;42.30
55121;DHT22;41019;48.512;9.036;2022-08-01T15:48:29;30.90;42.30
55121;DHT22;41019;48.512;9.036;2022-08-01T15:50:55;30.80;42.50
55121;DHT22;41019;48.512;9.036;2022-08-01T15:53:21;30.60;42.90
55121;DHT22;41019;48.512;9.036;2022-08-01T15:55:47;30.40;43.20
55121;DHT22;41019;48.512;9.036;2022-08-01T15:58:12;30.20;43.40
55121;DHT22;41019;48.512;9.036;2022-08-01T16:00:38;29.80;44.50
55121;DHT22;41019;48.512;9.036;2022-08-01T16:03:04;29.60;44.50
55121;DHT22;41019;48.512;9.036;2022-08-01T16:05:30;29.40;45.00
55121;DHT22;41019;48.512;9.036;2022-08-01T16:07:55;29.40;45.20
55121;DHT22;41019;48.512;9.036;2022-08-01T16:10:21;29.30;45.50
55121;DHT22;41019;48.512;9.036;2022-08-01T16:12:47;29.30;45.60
55121;DHT22;41019;48.512;9.036;2022-08-01T16:15:13;29.20;45.80
55121;DHT22;41019;48.512;9.036;2022-08-01T16:17:39;29.20;45.80